Time;durP1;ratioP1;P1;durP2;ratioP2;P2;SDS_P1;SDS_P2;PMS_P1;PMS_P2;Temp;Humidity;BMP_temperature;BMP_pressure;BME280_temperature;BME280_humidity;BME280_pressure;Samples;Min_cycle;Max_cycle;Signal;HPM_P1;HPM_P2
2023/11/04 00:00:37;;;;;;;12.30;6.10;;;7.70;99.90;;;;;;5034317;28;20472;-58
2023/11/04 00:03:05;;;;;;;5.40;3.43;;;7.70;99.90;;;;;;5034526;28;20762;-58
2023/11/04 00:05:34;;;;;;;9.77;5.77;;;7.60;99.90;;;;;;5034146;28;20470;-58
2023/11/04 00:08:01;;;;;;;9.30;4.40;;;7.60;99.90;;;;;;5033306;28;20483;-57
2023/11/04 00:10:28;;;;;;;11.77;5.37;;;7.60;99.90;;;;;;5034215;28;20562;-58
2023/11/04 00:12:57;;;;;;;8.90;5.10;;;7.60;99.90;;;;;;5034201;28;20558;-57
2023/11/04 00:15:24;;;;;;;7.90;4.90;;;7.50;99.90;;;;;;5033498;28;20919;-58
2023/11/04 00:17:54;;;;;;;7.60;3.70;;;7.50;1.00;;;;;;5032997;28;20945;-58
2023/11/04 00:20:21;;;;;;;9.40;4.83;;;7.40;1.00;;;;;;5033936;28;20459;-57
2023/11/04 00:22:50;;;;;;;7.33;2.80;;;7.40;1.00;;;;;;5034184;28;20463;-57
2023/11/04 00:25:17;;;;;;;7.10;3.50;;;7.40;1.00;;;;;;5033633;28;20516;-58
2023/11/04 00:27:45;;;;;;;9.77;4.20;;;7.40;1.00;;;;;;5033625;28;20462;-58
2023/11/04 00:30:14;;;;;;;6.70;3.63;;;7.40;1.00;;;;;;5033654;28;20899;-58
2023/11/04 00:32:42;;;;;;;7.23;3.27;;;7.40;1.00;;;;;;5033740;28;20463;-59
2023/11/04 00:35:09;;;;;;;6.37;3.40;;;7.40;1.00;;;;;;5034073;28;20436;-57
2023/11/04 00:37:37;;;;;;;7.27;3.57;;;7.40;1.00;;;;;;5033368;28;20466;-58
2023/11/04 00:40:08;;;;;;;6.80;3.23;;;7.40;1.00;;;;;;5037020;28;20497;-57
2023/11/04 00:42:35;;;;;;;4.70;3.00;;;7.40;1.00;;;;;;5037396;28;20458;-58
2023/11/04 00:45:03;;;;;;;3.90;2.30;;;7.40;1.00;;;;;;5037290;28;20553;-59
2023/11/04 00:47:30;;;;;;;4.13;2.63;;;7.50;1.00;;;;;;5036752;28;20496;-58
2023/11/04 00:49:57;;;;;;;4.70;2.20;;;7.50;99.90;;;;;;5037077;28;20891;-58
2023/11/04 00:52:25;;;;;;;3.37;2.37;;;7.50;99.90;;;;;;5036938;28;20502;-58
2023/11/04 00:54:52;;;;;;;5.40;2.60;;;7.60;99.90;;;;;;5036947;28;20549;-57
2023/11/04 00:57:20;;;;;;;4.00;2.63;;;7.60;99.90;;;;;;5036718;28;20463;-58
2023/11/04 00:59:48;;;;;;;2.80;2.10;;;7.60;99.90;;;;;;5036893;28;20491;-60
2023/11/04 01:02:15;;;;;;;3.30;2.10;;;7.70;99.90;;;;;;5036835;28;20553;-58
2023/11/04 01:04:42;;;;;;;4.80;2.73;;;7.70;99.90;;;;;;5036869;28;20545;-58
2023/11/04 01:07:10;;;;;;;3.77;1.93;;;7.80;99.90;;;;;;5036451;28;20463;-58
2023/11/04 01:09:37;;;;;;;2.77;1.80;;;7.80;99.90;;;;;;5036317;28;20771;-57
2023/11/04 01:12:05;;;;;;;2.27;1.80;;;7.90;99.90;;;;;;5036985;28;20465;-58
2023/11/04 01:14:35;;;;;;;3.47;1.50;;;7.90;99.90;;;;;;5036797;28;20475;-59
2023/11/04 01:17:02;;;;;;;2.33;1.70;;;7.80;99.90;;;;;;5036652;28;20434;-58
2023/11/04 01:19:29;;;;;;;3.43;1.90;;;7.80;99.90;;;;;;5036427;28;20498;-59
2023/11/04 01:21:56;;;;;;;3.80;1.97;;;7.80;99.90;;;;;;5036369;28;20957;-59
2023/11/04 01:24:24;;;;;;;3.30;1.50;;;7.90;99.90;;;;;;5036706;28;20467;-57
2023/11/04 01:26:52;;;;;;;2.73;2.00;;;7.90;99.90;;;;;;5036691;28;20459;-58
2023/11/04 01:29:20;;;;;;;2.40;1.50;;;7.90;99.90;;;;;;5035876;28;20489;-63
2023/11/04 01:31:49;;;;;;;2.63;1.80;;;7.90;99.90;;;;;;5036127;28;20908;-58
2023/11/04 01:34:16;;;;;;;3.10;1.87;;;7.90;99.90;;;;;;5036138;28;20512;-58
2023/11/04 01:36:43;;;;;;;2.37;1.57;;;7.80;99.90;;;;;;5036403;28;20521;-58
2023/11/04 01:39:12;;;;;;;3.80;2.00;;;7.90;99.90;;;;;;5036272;28;21306;-58
2023/11/04 01:41:39;;;;;;;3.73;1.80;;;7.90;99.90;;;;;;5035845;28;20512;-57
2023/11/04 01:44:07;;;;;;;5.90;1.90;;;7.90;99.90;;;;;;5036116;28;20440;-58
2023/11/04 01:46:34;;;;;;;3.87;1.80;;;7.90;99.90;;;;;;5036164;28;20896;-58
2023/11/04 01:49:03;;;;;;;2.20;1.60;;;8.00;99.90;;;;;;5036345;28;20459;-59
2023/11/04 01:51:31;;;;;;;3.20;1.80;;;8.00;99.90;;;;;;5034386;28;20463;-58
2023/11/04 01:53:59;;;;;;;3.03;1.80;;;8.00;99.90;;;;;;5035745;28;20864;-58
2023/11/04 01:56:32;;;;;;;2.80;1.67;;;8.10;99.90;;;;;;5035828;28;20467;-58
2023/11/04 01:59:00;;;;;;;2.20;1.60;;;8.10;63.80;;;;;;5035761;28;20483;-58
2023/11/04 02:01:28;;;;;;;4.20;1.60;;;8.10;61.10;;;;;;5034943;28;20459;-58
2023/11/04 02:03:55;;;;;;;2.33;1.33;;;8.20;3.40;;;;;;5035472;28;20434;-58
2023/11/04 02:06:23;;;;;;;3.23;1.77;;;8.20;1.00;;;;;;5035776;28;20733;-58
2023/11/04 02:08:51;;;;;;;2.20;1.60;;;8.20;1.00;;;;;;5034996;28;20495;-58
2023/11/04 02:11:18;;;;;;;4.47;1.87;;;8.20;1.00;;;;;;5035776;28;20506;-58
2023/11/04 02:13:45;;;;;;;2.60;1.70;;;8.20;1.00;;;;;;5035519;28;20558;-58
2023/11/04 02:16:12;;;;;;;3.00;1.70;;;8.20;1.00;;;;;;5035427;28;20513;-58
2023/11/04 02:18:39;;;;;;;3.13;1.80;;;8.20;1.00;;;;;;5035794;28;20535;-58
2023/11/04 02:21:08;;;;;;;2.50;2.10;;;8.20;1.00;;;;;;5035845;28;20549;-58
2023/11/04 02:23:35;;;;;;;2.67;1.30;;;8.20;1.00;;;;;;5035149;28;20455;-59
2023/11/04 02:26:02;;;;;;;3.47;1.67;;;8.20;1.00;;;;;;5035235;28;20554;-58
2023/11/04 02:28:30;;;;;;;5.07;1.63;;;8.20;16.80;;;;;;5035229;28;20467;-58
2023/11/04 02:30:58;;;;;;;4.27;1.73;;;8.20;8.40;;;;;;5034910;28;20525;-58
2023/11/04 02:33:26;;;;;;;5.80;2.00;;;8.20;1.00;;;;;;5034949;28;20559;-58
2023/11/04 02:35:53;;;;;;;5.20;2.27;;;8.20;1.00;;;;;;5035434;28;20755;-58
2023/11/04 02:38:22;;;;;;;4.93;2.00;;;8.20;1.00;;;;;;5034710;28;20459;-58
2023/11/04 02:40:50;;;;;;;2.90;1.87;;;8.10;1.00;;;;;;5035288;28;20971;-57
2023/11/04 02:43:17;;;;;;;2.73;1.70;;;8.10;1.00;;;;;;5035313;28;20459;-58
2023/11/04 02:45:44;;;;;;;3.50;1.60;;;8.10;32.80;;;;;;5034853;28;20463;-58
2023/11/04 02:48:11;;;;;;;2.27;1.40;;;8.00;87.80;;;;;;5035337;28;20460;-58
2023/11/04 02:50:38;;;;;;;3.10;1.80;;;8.00;99.90;;;;;;5035202;28;20463;-58
2023/11/04 02:53:06;;;;;;;2.30;1.60;;;7.90;99.90;;;;;;5035066;28;20463;-58
2023/11/04 02:55:34;;;;;;;3.20;2.00;;;7.90;99.90;;;;;;5034896;28;20565;-58
2023/11/04 02:58:01;;;;;;;2.70;1.63;;;7.90;99.90;;;;;;5034631;28;20463;-59
2023/11/04 03:00:29;;;;;;;4.03;1.67;;;7.90;99.90;;;;;;5034863;28;20943;-58
2023/11/04 03:02:56;;;;;;;2.70;1.70;;;7.90;99.90;;;;;;5034806;28;20438;-59
2023/11/04 03:05:23;;;;;;;2.00;1.50;;;7.90;99.90;;;;;;5034471;28;20459;-58
2023/11/04 03:07:50;;;;;;;3.10;1.87;;;8.00;99.90;;;;;;5034412;28;20950;-59
2023/11/04 03:10:18;;;;;;;2.77;1.60;;;8.00;99.90;;;;;;5033876;28;20459;-58
2023/11/04 03:12:46;;;;;;;3.80;1.90;;;8.00;99.90;;;;;;5034627;28;20819;-60
2023/11/04 03:15:14;;;;;;;2.20;1.63;;;8.00;99.90;;;;;;5034963;28;20487;-59
2023/11/04 03:17:41;;;;;;;2.60;1.60;;;8.00;99.90;;;;;;5034599;28;20459;-58
2023/11/04 03:20:09;;;;;;;2.80;1.70;;;8.00;99.90;;;;;;5034508;28;20469;-58
2023/11/04 03:22:36;;;;;;;3.33;1.47;;;8.00;99.90;;;;;;5034635;28;20459;-58
2023/11/04 03:25:05;;;;;;;3.50;1.63;;;8.00;99.90;;;;;;5034191;28;20463;-59
2023/11/04 03:27:32;;;;;;;2.27;1.60;;;8.00;99.90;;;;;;5034410;28;20434;-58
2023/11/04 03:30:00;;;;;;;2.50;1.50;;;8.10;99.90;;;;;;5034464;28;20533;-59
2023/11/04 03:32:27;;;;;;;2.60;1.80;;;8.10;99.90;;;;;;5034720;28;20512;-58
2023/11/04 03:34:55;;;;;;;2.37;1.70;;;8.10;99.90;;;;;;5034519;28;20470;-58
2023/11/04 03:37:22;;;;;;;2.53;1.70;;;8.10;99.90;;;;;;5034243;28;20466;-59
2023/11/04 03:39:49;;;;;;;2.40;1.60;;;8.10;99.90;;;;;;5033900;28;20499;-58
2023/11/04 03:42:16;;;;;;;2.40;1.80;;;8.10;99.90;;;;;;5034443;28;20545;-58
2023/11/04 03:44:44;;;;;;;2.03;1.33;;;8.10;99.90;;;;;;5034315;28;20434;-58
2023/11/04 03:47:12;;;;;;;2.67;1.60;;;8.20;99.90;;;;;;5034423;28;20463;-59
2023/11/04 03:49:39;;;;;;;4.40;1.83;;;8.20;99.90;;;;;;5034285;28;20455;-59
2023/11/04 03:52:09;;;;;;;2.77;1.70;;;8.20;99.90;;;;;;5034060;28;20431;-59
2023/11/04 03:54:36;;;;;;;2.30;1.50;;;8.20;99.90;;;;;;5034583;28;20987;-58
2023/11/04 03:57:03;;;;;;;3.13;2.00;;;8.20;99.90;;;;;;5034176;28;20498;-58
2023/11/04 03:59:30;;;;;;;2.97;1.60;;;8.20;99.90;;;;;;5033598;28;20600;-59
2023/11/04 04:01:57;;;;;;;2.30;1.70;;;8.30;99.90;;;;;;5034061;28;20441;-58
2023/11/04 04:04:26;;;;;;;2.57;1.90;;;8.30;99.90;;;;;;5034020;28;20459;-58
2023/11/04 04:06:53;;;;;;;3.03;1.80;;;8.30;99.90;;;;;;5034185;28;20864;-58
2023/11/04 04:09:20;;;;;;;2.30;1.60;;;8.30;99.90;;;;;;5033523;28;20599;-59
2023/11/04 04:11:47;;;;;;;3.10;1.63;;;8.30;99.90;;;;;;5033776;28;20652;-59
2023/11/04 04:14:14;;;;;;;2.30;1.80;;;8.30;99.90;;;;;;5035535;28;20457;-58
2023/11/04 04:16:42;;;;;;;4.17;1.70;;;8.30;99.90;;;;;;5037120;28;20455;-58
2023/11/04 04:19:09;;;;;;;3.53;1.80;;;8.30;99.90;;;;;;5037424;28;20455;-58
2023/11/04 04:21:39;;;;;;;2.60;1.70;;;8.30;99.90;;;;;;5037040;28;20558;-58
2023/11/04 04:24:07;;;;;;;4.70;1.30;;;8.30;99.90;;;;;;5037344;28;20549;-59
2023/11/04 04:26:34;;;;;;;2.60;1.80;;;8.30;99.90;;;;;;5036922;28;20546;-58
2023/11/04 04:29:01;;;;;;;3.37;1.90;;;8.30;99.90;;;;;;5037362;28;20896;-59
2023/11/04 04:31:28;;;;;;;2.90;2.00;;;8.30;99.90;;;;;;5036898;28;20550;-58
2023/11/04 04:33:56;;;;;;;2.77;1.80;;;8.40;99.90;;;;;;5037208;28;20581;-58
2023/11/04 04:36:23;;;;;;;2.90;2.10;;;8.30;99.90;;;;;;5037236;28;20521;-58
2023/11/04 04:38:52;;;;;;;2.50;1.83;;;8.30;99.90;;;;;;5037627;28;20562;-58
2023/11/04 04:41:19;;;;;;;3.70;2.03;;;8.40;99.90;;;;;;5036886;28;20497;-59
2023/11/04 04:43:46;;;;;;;4.23;1.90;;;8.40;99.90;;;;;;5036795;28;20549;-59
2023/11/04 04:46:13;;;;;;;3.60;1.90;;;8.40;99.90;;;;;;5037207;28;20424;-58
2023/11/04 04:48:41;;;;;;;2.40;1.57;;;8.30;99.90;;;;;;5037180;28;20542;-59
2023/11/04 04:51:08;;;;;;;3.17;2.00;;;8.40;1.00;;;;;;5037039;28;20509;-59
2023/11/04 04:53:36;;;;;;;5.43;1.67;;;8.40;1.00;;;;;;5036829;28;20482;-58
2023/11/04 04:56:05;;;;;;;4.60;2.07;;;8.40;99.90;;;;;;5036756;28;20900;-60
2023/11/04 04:58:32;;;;;;;4.30;2.00;;;8.40;1.00;;;;;;5036705;28;20461;-58
2023/11/04 05:01:00;;;;;;;2.87;1.90;;;8.40;1.00;;;;;;5036754;28;20791;-58
2023/11/04 05:03:28;;;;;;;3.00;1.90;;;8.40;1.00;;;;;;5036630;28;20880;-58
2023/11/04 05:05:55;;;;;;;3.07;1.90;;;8.40;1.00;;;;;;5036644;28;20553;-58
2023/11/04 05:08:22;;;;;;;2.07;1.40;;;8.40;1.00;;;;;;5036341;28;20560;-58
2023/11/04 05:10:49;;;;;;;2.53;1.97;;;8.40;1.00;;;;;;5036806;28;20426;-59
2023/11/04 05:13:18;;;;;;;2.40;1.70;;;8.40;1.00;;;;;;5034375;28;20516;-58
2023/11/04 05:15:46;;;;;;;3.10;1.70;;;8.40;1.00;;;;;;5035607;28;20475;-58
2023/11/04 05:18:13;;;;;;;2.80;2.33;;;8.40;1.00;;;;;;5036066;28;20486;-58
2023/11/04 05:20:41;;;;;;;2.47;1.70;;;8.40;1.00;;;;;;5036089;28;20953;-58
2023/11/04 05:23:08;;;;;;;2.80;2.03;;;8.40;1.00;;;;;;5034467;28;20467;-58
2023/11/04 05:25:36;;;;;;;3.50;1.73;;;8.40;1.00;;;;;;5034061;28;20463;-58
2023/11/04 05:28:03;;;;;;;2.30;1.70;;;8.40;1.00;;;;;;5035726;28;20459;-58
2023/11/04 05:30:34;;;;;;;3.40;2.10;;;8.40;1.00;;;;;;5034466;28;20527;-58
2023/11/04 05:33:01;;;;;;;2.73;1.50;;;8.30;1.00;;;;;;5036234;28;20464;-58
2023/11/04 05:35:29;;;;;;;2.90;2.23;;;8.30;1.00;;;;;;5034258;28;20558;-59
2023/11/04 05:37:56;;;;;;;3.80;2.00;;;8.30;1.00;;;;;;5034823;28;20467;-58
2023/11/04 05:40:23;;;;;;;2.00;1.50;;;8.30;1.00;;;;;;5034328;28;20491;-58
2023/11/04 05:42:50;;;;;;;3.10;1.93;;;8.30;21.80;;;;;;5034107;28;20459;-59
2023/11/04 05:45:17;;;;;;;2.73;1.90;;;8.30;37.20;;;;;;5033934;28;20470;-58
2023/11/04 05:47:47;;;;;;;2.80;1.70;;;8.30;39.40;;;;;;5034110;28;20462;-59
2023/11/04 05:50:14;;;;;;;5.23;1.90;;;8.30;51.30;;;;;;5034716;28;20883;-59
2023/11/04 05:52:43;;;;;;;2.60;1.90;;;8.30;92.30;;;;;;5035021;28;20466;-59
2023/11/04 05:55:12;;;;;;;2.70;1.77;;;8.30;99.90;;;;;;5035998;28;20512;-59
2023/11/04 05:57:39;;;;;;;5.03;1.97;;;8.30;99.90;;;;;;5039328;28;20463;-59
2023/11/04 06:00:09;;;;;;;3.83;2.13;;;8.30;99.90;;;;;;5045320;27;20502;-59
2023/11/04 06:02:37;;;;;;;2.53;1.70;;;8.20;99.90;;;;;;5034377;28;20464;-60
2023/11/04 06:05:06;;;;;;;2.60;1.80;;;8.20;99.90;;;;;;5035957;28;20560;-59
2023/11/04 06:07:34;;;;;;;3.13;1.97;;;8.20;99.90;;;;;;5035443;28;20487;-58
2023/11/04 06:10:01;;;;;;;3.80;2.00;;;8.20;99.90;;;;;;5035438;28;20455;-58
2023/11/04 06:12:28;;;;;;;3.73;2.10;;;8.20;99.90;;;;;;5035564;28;20459;-58
2023/11/04 06:14:55;;;;;;;4.30;2.73;;;8.20;99.90;;;;;;5035640;28;20463;-58
2023/11/04 06:17:22;;;;;;;3.00;2.00;;;8.20;99.90;;;;;;5035153;28;20460;-58
2023/11/04 06:19:49;;;;;;;2.43;1.73;;;8.20;99.90;;;;;;5035312;28;20976;-58
2023/11/04 06:22:19;;;;;;;2.97;2.17;;;8.30;99.90;;;;;;5035401;28;20719;-59
2023/11/04 06:24:46;;;;;;;9.00;4.17;;;8.30;99.90;;;;;;5035870;28;20895;-58
2023/11/04 06:27:13;;;;;;;10.00;6.20;;;8.30;99.90;;;;;;5035350;28;20906;-58
2023/11/04 06:29:41;;;;;;;4.13;3.00;;;8.30;99.90;;;;;;5034101;28;20553;-59
2023/11/04 06:32:08;;;;;;;4.33;3.13;;;8.30;99.90;;;;;;5034222;28;20887;-57
2023/11/04 06:34:35;;;;;;;4.43;3.00;;;8.30;99.90;;;;;;5034830;28;20466;-58
2023/11/04 06:37:03;;;;;;;4.73;3.60;;;8.20;99.90;;;;;;5034949;28;20736;-58
2023/11/04 06:39:31;;;;;;;6.03;3.63;;;8.20;99.90;;;;;;5034890;28;20477;-61
2023/11/04 06:41:59;;;;;;;6.80;4.50;;;8.10;99.90;;;;;;5035262;28;20495;-61
2023/11/04 06:44:26;;;;;;;5.97;3.40;;;8.10;99.90;;;;;;5035349;28;20542;-61
2023/11/04 06:46:54;;;;;;;8.23;2.97;;;8.10;1.00;;;;;;5035576;28;20994;-62
2023/11/04 06:49:22;;;;;;;8.80;5.80;;;8.00;1.00;;;;;;5035288;28;20554;-61
2023/11/04 06:51:49;;;;;;;19.23;8.70;;;8.00;1.00;;;;;;5034797;28;20467;-61
2023/11/04 06:54:16;;;;;;;16.03;6.63;;;8.10;1.00;;;;;;5035343;28;20557;-61
2023/11/04 06:56:45;;;;;;;11.10;6.20;;;8.10;1.00;;;;;;5035639;28;20461;-61
2023/11/04 06:59:16;;;;;;;4.90;2.70;;;8.10;1.00;;;;;;5035687;28;20455;-61
2023/11/04 07:01:47;;;;;;;8.73;5.10;;;8.10;1.00;;;;;;5035157;28;20501;-61
2023/11/04 07:04:14;;;;;;;6.13;4.23;;;8.20;1.00;;;;;;5035339;28;20463;-62
2023/11/04 07:06:44;;;;;;;4.60;3.50;;;8.10;1.00;;;;;;5035528;28;20747;-62
2023/11/04 07:09:12;;;;;;;15.00;4.70;;;8.10;1.00;;;;;;5035466;28;20491;-62
2023/11/04 07:11:40;;;;;;;5.30;3.20;;;8.10;1.00;;;;;;5035378;28;20460;-61
2023/11/04 07:14:09;;;;;;;7.83;4.73;;;8.10;1.00;;;;;;5034917;28;20572;-62
2023/11/04 07:16:37;;;;;;;6.93;4.43;;;8.20;1.00;;;;;;5035288;28;20464;-61
2023/11/04 07:19:04;;;;;;;9.97;4.70;;;8.20;1.00;;;;;;5035022;28;20442;-61
2023/11/04 07:21:31;;;;;;;4.33;2.87;;;8.20;1.00;;;;;;5034890;28;20527;-62
2023/11/04 07:23:58;;;;;;;10.60;6.23;;;8.30;1.00;;;;;;5034992;28;20856;-61
2023/11/04 07:26:25;;;;;;;7.10;4.80;;;8.30;99.90;;;;;;5035349;28;20733;-62
2023/11/04 07:28:52;;;;;;;8.67;5.53;;;8.40;99.90;;;;;;5034783;28;20499;-61
2023/11/04 07:31:21;;;;;;;4.30;3.50;;;8.40;99.90;;;;;;5034048;28;20545;-62
2023/11/04 07:33:48;;;;;;;3.97;2.60;;;8.40;99.90;;;;;;5034792;28;20463;-62
2023/11/04 07:36:23;;;;;;;7.90;5.27;;;8.50;99.90;;;;;;5034807;28;20470;-62
2023/11/04 07:38:51;;;;;;;5.20;3.27;;;8.50;99.90;;;;;;5034834;28;20459;-63
2023/11/04 07:41:18;;;;;;;7.80;4.93;;;8.60;99.90;;;;;;5034952;28;20952;-62
2023/11/04 07:43:45;;;;;;;6.80;2.90;;;8.60;99.90;;;;;;5034546;28;20572;-62
2023/11/04 07:46:12;;;;;;;4.97;3.50;;;8.60;99.90;;;;;;5035069;28;20494;-62
2023/11/04 07:48:41;;;;;;;5.43;3.40;;;8.70;99.90;;;;;;5033684;28;20477;-62
2023/11/04 07:51:10;;;;;;;5.00;2.90;;;8.80;99.90;;;;;;5034957;28;20554;-62
2023/11/04 07:53:37;;;;;;;3.30;2.03;;;8.80;99.90;;;;;;5034859;28;20464;-62
2023/11/04 07:56:06;;;;;;;3.80;2.80;;;8.80;99.90;;;;;;5034441;28;20469;-62
2023/11/04 07:58:33;;;;;;;31.57;15.17;;;8.80;99.90;;;;;;5034569;28;20464;-62
2023/11/04 08:01:01;;;;;;;9.20;5.53;;;8.80;99.90;;;;;;5034308;28;20924;-62
2023/11/04 08:03:29;;;;;;;63.20;25.67;;;8.80;99.90;;;;;;5034412;28;20470;-63
2023/11/04 08:05:58;;;;;;;41.63;17.00;;;8.80;99.90;;;;;;5034210;28;20459;-62
2023/11/04 08:08:25;;;;;;;32.83;15.20;;;8.80;1.00;;;;;;5032464;28;20495;-62
2023/11/04 08:10:53;;;;;;;27.37;13.37;;;8.80;1.00;;;;;;5032694;28;20553;-62
2023/11/04 08:13:22;;;;;;;7.10;4.43;;;8.80;1.00;;;;;;5032335;28;20459;-63
2023/11/04 08:15:53;;;;;;;15.47;8.50;;;8.80;1.00;;;;;;5032228;28;20900;-63
2023/11/04 08:18:22;;;;;;;13.17;5.50;;;8.80;1.00;;;;;;5032886;28;20463;-62
2023/11/04 08:20:49;;;;;;;12.07;7.50;;;8.80;1.00;;;;;;5033227;28;20545;-62
2023/11/04 08:23:19;;;;;;;10.47;5.90;;;8.90;1.00;;;;;;5033021;28;20451;-62
2023/11/04 08:25:46;;;;;;;15.80;8.70;;;8.90;1.00;;;;;;5032801;28;20470;-62
2023/11/04 08:28:14;;;;;;;10.73;7.13;;;8.90;1.00;;;;;;5032694;28;20471;-62
2023/11/04 08:30:41;;;;;;;11.23;7.53;;;8.90;1.00;;;;;;5031928;28;20470;-62
2023/11/04 08:33:08;;;;;;;4.50;3.90;;;8.90;1.00;;;;;;5033091;28;20459;-62
2023/11/04 08:35:35;;;;;;;4.97;3.43;;;8.90;1.00;;;;;;5032753;28;20554;-62
2023/11/04 08:38:03;;;;;;;5.87;3.20;;;8.90;1.00;;;;;;5033324;28;20434;-62
2023/11/04 08:40:32;;;;;;;4.70;3.50;;;9.00;1.00;;;;;;5034029;28;20481;-63
2023/11/04 08:42:59;;;;;;;5.20;3.93;;;9.00;1.00;;;;;;5034244;28;20872;-63
2023/11/04 08:45:27;;;;;;;4.10;2.97;;;9.10;1.00;;;;;;5033409;28;20466;-62
2023/11/04 08:47:55;;;;;;;3.40;2.50;;;9.20;1.00;;;;;;5032887;28;20486;-61
2023/11/04 08:50:22;;;;;;;3.37;3.07;;;9.20;99.90;;;;;;5034587;28;20848;-61
2023/11/04 08:52:49;;;;;;;3.53;2.50;;;9.20;99.90;;;;;;5034324;28;20497;-62
2023/11/04 08:55:17;;;;;;;3.07;2.60;;;9.10;99.90;;;;;;5034022;28;20463;-62
2023/11/04 08:57:45;;;;;;;3.33;2.60;;;9.30;99.90;;;;;;5033959;28;20504;-66
2023/11/04 09:00:14;;;;;;;5.27;3.17;;;9.30;99.90;;;;;;5035389;28;20463;-62
2023/11/04 09:02:41;;;;;;;3.37;2.73;;;9.20;99.90;;;;;;5036715;28;20495;-62
2023/11/04 09:05:10;;;;;;;3.47;2.57;;;9.20;99.90;;;;;;5037143;28;20459;-62
2023/11/04 09:07:37;;;;;;;4.07;2.30;;;9.30;99.90;;;;;;5035873;28;20511;-61
2023/11/04 09:10:05;;;;;;;3.13;2.47;;;9.30;99.90;;;;;;5036904;28;20468;-61
2023/11/04 09:12:33;;;;;;;5.13;2.90;;;9.30;99.90;;;;;;5037352;28;20558;-61
2023/11/04 09:15:02;;;;;;;9.30;2.80;;;9.30;99.90;;;;;;5037041;28;20460;-62
2023/11/04 09:17:30;;;;;;;3.30;2.57;;;9.30;1.00;;;;;;5037033;28;20485;-62
2023/11/04 09:19:57;;;;;;;3.87;2.70;;;9.30;1.00;;;;;;5036613;28;20559;-62
2023/11/04 09:22:24;;;;;;;3.93;2.57;;;9.40;1.00;;;;;;5034232;28;20777;-62
2023/11/04 09:24:52;;;;;;;4.70;2.70;;;9.40;1.00;;;;;;5036187;28;20456;-62
2023/11/04 09:27:19;;;;;;;3.40;2.67;;;9.50;1.00;;;;;;5036142;28;20463;-62
2023/11/04 09:29:47;;;;;;;3.60;2.47;;;9.50;1.00;;;;;;5034429;28;20524;-62
2023/11/04 09:32:17;;;;;;;4.07;2.63;;;9.60;1.00;;;;;;5035671;28;20456;-62
2023/11/04 09:34:45;;;;;;;3.33;2.60;;;9.70;99.90;;;;;;5036863;28;20463;-62
2023/11/04 09:37:12;;;;;;;2.93;2.40;;;9.80;99.90;;;;;;5037211;28;20475;-62
2023/11/04 09:39:39;;;;;;;3.70;2.70;;;9.80;1.00;;;;;;5036654;28;20872;-62
2023/11/04 09:42:10;;;;;;;3.33;2.73;;;9.90;1.00;;;;;;5036341;28;20594;-61
2023/11/04 09:44:38;;;;;;;4.20;2.47;;;9.90;1.00;;;;;;5036154;28;20512;-62
2023/11/04 09:47:06;;;;;;;3.00;2.43;;;9.90;1.00;;;;;;5035805;28;20455;-62
2023/11/04 09:49:35;;;;;;;3.20;2.10;;;10.00;1.00;;;;;;5028304;28;20455;-62
2023/11/04 09:52:02;;;;;;;4.23;2.20;;;10.00;1.00;;;;;;5036188;28;20456;-62
2023/11/04 09:54:32;;;;;;;2.90;1.87;;;10.20;99.90;;;;;;5037244;28;20489;-65
2023/11/04 09:56:59;;;;;;;3.10;2.17;;;10.30;99.90;;;;;;5036769;28;20459;-61
2023/11/04 09:59:27;;;;;;;3.70;2.10;;;10.40;99.90;;;;;;5035480;28;20458;-62
2023/11/04 10:01:54;;;;;;;4.70;2.43;;;10.30;99.90;;;;;;5036192;28;20959;-62
2023/11/04 10:04:21;;;;;;;5.20;2.30;;;10.40;76.50;;;;;;5036074;28;20440;-65
2023/11/04 10:06:51;;;;;;;3.53;2.10;;;10.70;1.00;;;;;;5036887;28;20745;-62
2023/11/04 10:09:18;;;;;;;3.77;2.33;;;10.90;1.00;;;;;;5035688;28;20522;-60
2023/11/04 10:11:51;;;;;;;3.73;2.40;;;10.90;1.00;;;;;;5035221;28;20546;-60
2023/11/04 10:14:20;;;;;;;3.53;2.20;;;10.80;1.00;;;;;;5036757;28;20740;-60
2023/11/04 10:16:47;;;;;;;2.70;2.20;;;10.70;1.00;;;;;;5036145;28;20569;-60
2023/11/04 10:19:17;;;;;;;4.97;2.33;;;10.50;1.00;;;;;;5036322;28;20807;-60
2023/11/04 10:21:45;;;;;;;5.23;2.60;;;10.60;1.00;;;;;;5036736;28;20498;-60
2023/11/04 10:24:14;;;;;;;3.37;2.30;;;10.80;1.00;;;;;;5036654;28;20741;-60
2023/11/04 10:26:41;;;;;;;3.03;2.17;;;10.90;1.00;;;;;;5036571;28;20776;-60
2023/11/04 10:29:08;;;;;;;4.03;2.20;;;10.90;99.90;;;;;;5035860;28;20523;-60
2023/11/04 10:31:38;;;;;;;3.17;2.23;;;11.00;99.90;;;;;;5035513;28;20462;-61
2023/11/04 10:34:07;;;;;;;2.80;2.27;;;11.10;99.90;;;;;;5035379;28;20959;-60
2023/11/04 10:36:36;;;;;;;6.33;3.00;;;11.20;99.90;;;;;;5035744;28;20549;-60
2023/11/04 10:39:04;;;;;;;3.40;2.00;;;11.40;99.90;;;;;;5036139;28;20463;-63
2023/11/04 10:41:39;;;;;;;5.80;2.53;;;11.50;99.90;;;;;;5036032;28;20487;-62
2023/11/04 10:44:15;;;;;;;3.63;1.83;;;11.50;99.90;;;;;;5036131;28;20463;-61
2023/11/04 10:46:52;;;;;;;3.97;1.90;;;11.30;99.90;;;;;;5036261;28;20898;-62
2023/11/04 10:49:24;;;;;;;3.07;1.97;;;11.00;99.90;;;;;;5035325;28;20508;-62
2023/11/04 10:52:02;;;;;;;3.30;2.00;;;11.00;99.90;;;;;;5036130;28;20465;-63
2023/11/04 10:54:36;;;;;;;3.33;2.30;;;11.00;99.90;;;;;;5035962;28;20461;-62
2023/11/04 10:57:17;;;;;;;5.00;2.10;;;10.90;99.90;;;;;;5036221;28;20487;-62
2023/11/04 10:59:53;;;;;;;7.63;3.70;;;10.90;99.90;;;;;;5035773;28;20459;-61
2023/11/04 11:02:21;;;;;;;4.63;2.37;;;10.80;99.90;;;;;;5035839;28;20494;-62
2023/11/04 11:04:50;;;;;;;3.60;2.37;;;10.80;99.90;;;;;;5035973;28;20566;-62
2023/11/04 11:07:19;;;;;;;5.23;2.50;;;10.90;99.90;;;;;;5035210;28;20487;-62
2023/11/04 11:09:48;;;;;;;4.40;2.20;;;10.80;99.90;;;;;;5034938;28;20463;-62
2023/11/04 11:12:25;;;;;;;2.70;2.03;;;10.90;99.90;;;;;;5035484;28;20465;-62
2023/11/04 11:14:54;;;;;;;4.80;2.53;;;10.80;99.90;;;;;;5035845;28;20465;-61
2023/11/04 11:17:30;;;;;;;4.03;2.13;;;10.80;99.90;;;;;;5035460;28;20470;-61
2023/11/04 11:19:58;;;;;;;4.73;2.27;;;10.70;99.90;;;;;;5034029;28;20451;-61
2023/11/04 11:22:26;;;;;;;4.83;2.13;;;10.70;99.90;;;;;;5033184;28;20585;-62
2023/11/04 11:24:56;;;;;;;4.93;2.30;;;10.60;99.90;;;;;;5033897;28;20470;-62
2023/11/04 11:27:25;;;;;;;7.13;2.63;;;10.60;99.90;;;;;;5035742;28;20494;-61
2023/11/04 11:29:56;;;;;;;4.97;2.30;;;10.60;99.90;;;;;;5034429;28;20709;-63
2023/11/04 11:32:33;;;;;;;6.53;2.80;;;10.50;99.90;;;;;;5035165;28;20459;-62
2023/11/04 11:35:00;;;;;;;3.87;2.33;;;10.50;99.90;;;;;;5035713;28;20524;-62
2023/11/04 11:37:28;;;;;;;8.00;2.50;;;10.40;99.90;;;;;;5035278;28;20460;-62
2023/11/04 11:39:55;;;;;;;3.43;2.30;;;10.40;99.90;;;;;;5035180;28;20864;-62
2023/11/04 11:42:30;;;;;;;3.50;2.10;;;10.40;1.00;;;;;;5035111;28;20548;-63
2023/11/04 11:44:57;;;;;;;4.57;2.30;;;10.30;1.00;;;;;;5035123;28;20462;-62
2023/11/04 11:47:24;;;;;;;3.70;2.20;;;10.30;99.90;;;;;;5034984;28;20497;-62
2023/11/04 11:49:52;;;;;;;4.30;2.50;;;10.10;99.90;;;;;;5033956;28;20462;-62
2023/11/04 11:52:19;;;;;;;4.97;2.60;;;10.00;1.00;;;;;;5034962;28;20915;-63
2023/11/04 11:54:47;;;;;;;3.80;2.10;;;9.90;1.00;;;;;;5038349;28;20494;-65
2023/11/04 11:57:14;;;;;;;6.47;2.53;;;9.90;99.90;;;;;;5041555;28;20527;-65
2023/11/04 11:59:43;;;;;;;4.90;2.47;;;9.80;99.90;;;;;;5031503;28;20557;-64
2023/11/04 12:02:10;;;;;;;3.97;2.60;;;9.80;99.90;;;;;;5032485;28;20474;-66
2023/11/04 12:04:37;;;;;;;5.40;2.50;;;9.80;99.90;;;;;;5033327;28;20867;-65
2023/11/04 12:07:05;;;;;;;4.23;2.30;;;9.70;1.00;;;;;;5033002;28;20490;-67
2023/11/04 12:09:32;;;;;;;6.50;3.00;;;9.70;1.00;;;;;;5032559;28;20466;-71
2023/11/04 12:11:59;;;;;;;5.83;2.70;;;9.80;1.00;;;;;;5033492;28;20499;-65
2023/11/04 12:14:27;;;;;;;5.17;2.17;;;9.70;1.00;;;;;;5033915;28;20550;-67
2023/11/04 12:16:56;;;;;;;6.13;2.73;;;9.70;1.00;;;;;;5033797;28;20676;-66
2023/11/04 12:19:24;;;;;;;3.50;2.57;;;9.60;1.00;;;;;;5033436;28;20536;-67
2023/11/04 12:21:51;;;;;;;4.00;2.30;;;9.60;1.00;;;;;;5033370;28;20818;-68
2023/11/04 12:24:19;;;;;;;4.13;2.50;;;9.70;1.00;;;;;;5033753;28;20459;-67
2023/11/04 12:26:46;;;;;;;5.80;2.37;;;9.80;1.00;;;;;;5033745;28;20459;-68
2023/11/04 12:29:13;;;;;;;2.60;1.87;;;9.90;1.00;;;;;;5033353;28;20473;-63
2023/11/04 12:31:41;;;;;;;2.87;2.07;;;9.80;1.00;;;;;;5033221;28;20900;-67
2023/11/04 12:34:10;;;;;;;3.73;2.30;;;9.70;1.00;;;;;;5030420;28;20474;-66
2023/11/04 12:36:38;;;;;;;3.23;2.30;;;9.70;1.00;;;;;;5036995;28;20519;-66
2023/11/04 12:39:05;;;;;;;4.47;1.90;;;9.50;1.00;;;;;;5037172;28;20464;-67
2023/11/04 12:41:33;;;;;;;3.77;2.20;;;9.40;1.00;;;;;;5036673;28;20463;-68
2023/11/04 12:44:02;;;;;;;4.10;2.20;;;9.30;1.00;;;;;;5036771;28;20513;-64
2023/11/04 12:46:29;;;;;;;3.73;2.40;;;9.20;99.90;;;;;;5037033;28;20459;-66
2023/11/04 12:49:00;;;;;;;3.90;2.37;;;9.20;99.90;;;;;;5037066;28;20553;-65
2023/11/04 12:51:29;;;;;;;4.67;2.23;;;9.20;99.90;;;;;;5036456;28;20463;-66
2023/11/04 12:53:56;;;;;;;3.20;2.40;;;9.30;99.90;;;;;;5036668;28;20463;-66
2023/11/04 12:56:24;;;;;;;4.67;2.07;;;9.30;99.90;;;;;;5036767;28;20463;-67
2023/11/04 12:58:53;;;;;;;4.53;2.20;;;9.20;99.90;;;;;;5036687;28;20459;-67
2023/11/04 13:01:20;;;;;;;5.00;2.30;;;9.20;99.90;;;;;;5036054;28;20558;-66